Time;durP1;ratioP1;P1;durP2;ratioP2;P2;SDS_P1;SDS_P2;PMS_P1;PMS_P2;Temp;Humidity;BMP_temperature;BMP_pressure;BME280_temperature;BME280_humidity;BME280_pressure;Samples;Min_cycle;Max_cycle;Signal;HPM_P1;HPM_P2
2022/02/13 00:01:02;;;;;;;17.63;10.90;;;2.90;74.50;;;;;;5110462;28;20040;-86
2022/02/13 00:03:29;;;;;;;16.85;11.02;;;2.90;74.60;;;;;;5110501;28;20047;-87
2022/02/13 00:05:56;;;;;;;18.95;11.57;;;2.90;74.60;;;;;;5110577;28;20042;-87
2022/02/13 00:08:23;;;;;;;15.60;11.35;;;2.90;74.60;;;;;;5111222;28;20448;-87
2022/02/13 00:11:10;;;;;;;15.05;11.02;;;2.80;74.60;;;;;;5108558;28;20097;-86
2022/02/13 00:13:37;;;;;;;17.15;10.63;;;2.80;74.70;;;;;;5110233;28;20058;-86
2022/02/13 00:16:04;;;;;;;16.98;11.77;;;2.80;74.70;;;;;;5108921;28;20040;-86
2022/02/13 00:18:31;;;;;;;17.60;11.73;;;2.80;74.70;;;;;;5110490;28;20055;-85
2022/02/13 00:20:58;;;;;;;16.35;11.20;;;2.80;74.70;;;;;;5110462;28;20043;-86
2022/02/13 00:23:25;;;;;;;19.67;12.13;;;2.70;74.70;;;;;;5111116;28;20394;-86
2022/02/13 00:25:52;;;;;;;15.95;11.50;;;2.70;74.70;;;;;;5112035;28;20050;-86
2022/02/13 00:28:19;;;;;;;16.02;10.90;;;2.70;74.80;;;;;;5110095;28;20048;-86
2022/02/13 00:30:46;;;;;;;21.67;11.60;;;2.70;74.80;;;;;;5110468;28;20036;-86
2022/02/13 00:33:15;;;;;;;18.42;12.07;;;2.70;74.80;;;;;;5110312;28;20391;-86
2022/02/13 00:35:43;;;;;;;16.63;11.77;;;2.70;74.80;;;;;;5110450;28;20417;-86
2022/02/13 00:38:10;;;;;;;15.23;11.32;;;2.70;74.80;;;;;;5107901;28;20050;-85
2022/02/13 00:40:37;;;;;;;19.00;12.18;;;2.70;74.90;;;;;;5110352;28;20051;-86
2022/02/13 00:43:05;;;;;;;16.13;12.50;;;2.60;74.90;;;;;;5091873;28;20060;-86
2022/02/13 00:45:32;;;;;;;16.90;11.27;;;2.60;74.90;;;;;;5092064;28;20055;-85
2022/02/13 00:47:59;;;;;;;16.85;11.90;;;2.60;74.90;;;;;;5110259;28;20398;-87
2022/02/13 00:50:26;;;;;;;18.45;12.40;;;2.60;74.90;;;;;;5110444;28;20055;-87
2022/02/13 00:52:53;;;;;;;17.85;12.82;;;2.60;74.90;;;;;;5094083;28;20063;-87
2022/02/13 00:55:20;;;;;;;16.73;11.77;;;2.60;75.00;;;;;;5092894;28;20059;-86
2022/02/13 00:57:48;;;;;;;20.58;12.50;;;2.50;75.00;;;;;;5113497;28;20516;-87
2022/02/13 01:00:15;;;;;;;19.30;11.93;;;2.50;75.00;;;;;;5113913;28;20062;-86
2022/02/13 01:02:42;;;;;;;16.88;12.10;;;2.50;75.10;;;;;;5114147;28;20047;-86
2022/02/13 01:05:09;;;;;;;19.20;12.43;;;2.50;75.10;;;;;;5115784;28;20044;-86
2022/02/13 01:07:36;;;;;;;17.40;12.23;;;2.50;75.10;;;;;;5113549;28;20054;-86
2022/02/13 01:10:05;;;;;;;14.95;12.07;;;2.50;75.10;;;;;;5113664;28;20044;-85
2022/02/13 01:12:33;;;;;;;16.30;12.43;;;2.50;75.20;;;;;;5113068;28;20396;-86
2022/02/13 01:15:00;;;;;;;19.25;11.80;;;2.50;75.20;;;;;;5113490;28;20044;-85
2022/02/13 01:17:27;;;;;;;20.65;12.63;;;2.50;75.20;;;;;;5113880;28;20047;-86
2022/02/13 01:19:54;;;;;;;18.40;13.25;;;2.40;75.20;;;;;;5113323;28;20043;-85
2022/02/13 01:22:22;;;;;;;16.75;12.45;;;2.40;75.20;;;;;;5113320;28;20065;-86
2022/02/13 01:24:49;;;;;;;19.73;13.38;;;2.40;75.30;;;;;;5113231;28;20051;-86
2022/02/13 01:27:16;;;;;;;15.95;12.07;;;2.40;75.30;;;;;;5113148;28;20048;-86
2022/02/13 01:29:42;;;;;;;17.95;12.20;;;2.40;75.30;;;;;;5094605;28;20044;-86
2022/02/13 01:32:10;;;;;;;17.13;12.40;;;2.40;75.30;;;;;;5115242;28;20055;-86
2022/02/13 01:34:37;;;;;;;19.85;12.82;;;2.40;75.40;;;;;;5111660;28;20052;-86
2022/02/13 01:37:04;;;;;;;18.67;12.20;;;2.40;75.40;;;;;;5112952;28;20059;-86
2022/02/13 01:39:32;;;;;;;17.48;13.13;;;2.40;75.40;;;;;;5095159;28;20051;-86
2022/02/13 01:42:00;;;;;;;18.40;12.32;;;2.40;75.40;;;;;;5112807;28;20043;-87
2022/02/13 01:44:32;;;;;;;17.60;13.25;;;2.40;75.40;;;;;;5113316;28;20047;-87
2022/02/13 01:47:01;;;;;;;17.55;12.98;;;2.40;75.40;;;;;;5113711;28;20425;-87
2022/02/13 01:49:29;;;;;;;16.35;12.50;;;2.30;75.40;;;;;;5094611;28;20459;-87
2022/02/13 01:51:59;;;;;;;21.65;13.00;;;2.40;75.50;;;;;;5094790;28;20048;-88
2022/02/13 01:54:26;;;;;;;16.52;12.05;;;2.40;75.50;;;;;;5112208;28;20052;-87
2022/02/13 01:56:53;;;;;;;16.20;11.68;;;2.40;75.50;;;;;;5112678;28;20467;-85
2022/02/13 01:59:20;;;;;;;18.13;12.38;;;2.40;75.50;;;;;;5096309;28;20051;-86
2022/02/13 02:01:47;;;;;;;17.10;12.60;;;2.30;75.50;;;;;;5113861;28;20043;-87
2022/02/13 02:04:15;;;;;;;20.90;12.63;;;2.30;75.50;;;;;;5112651;28;20084;-86
2022/02/13 02:06:42;;;;;;;21.27;12.57;;;2.30;75.50;;;;;;5112029;28;20046;-86
2022/02/13 02:09:09;;;;;;;17.58;12.27;;;2.30;75.50;;;;;;5112128;28;20505;-86
2022/02/13 02:11:36;;;;;;;20.05;12.60;;;2.30;75.50;;;;;;5094180;28;20044;-86
2022/02/13 02:14:03;;;;;;;16.98;12.50;;;2.30;75.60;;;;;;5095205;28;20101;-86
2022/02/13 02:16:30;;;;;;;19.88;12.05;;;2.30;75.50;;;;;;5112559;28;20055;-87
2022/02/13 02:18:57;;;;;;;18.88;12.27;;;2.30;75.50;;;;;;5112589;28;20500;-86
2022/02/13 02:21:24;;;;;;;19.45;12.13;;;2.20;75.50;;;;;;5094446;28;20047;-87
2022/02/13 02:23:51;;;;;;;19.27;13.07;;;2.20;75.60;;;;;;5111943;28;20047;-86
2022/02/13 02:26:19;;;;;;;17.48;12.73;;;2.30;75.60;;;;;;5095535;28;20040;-87
2022/02/13 02:28:47;;;;;;;19.83;13.15;;;2.20;75.60;;;;;;5113264;28;20048;-86
2022/02/13 02:31:15;;;;;;;19.00;12.52;;;2.20;75.60;;;;;;5123415;27;20081;-86
2022/02/13 02:33:42;;;;;;;17.17;11.90;;;2.20;75.60;;;;;;5111914;28;20520;-87
2022/02/13 02:36:17;;;;;;;14.82;11.27;;;2.20;75.70;;;;;;5127970;27;20047;-86
2022/02/13 02:38:44;;;;;;;20.10;13.20;;;2.20;75.70;;;;;;5095679;28;20044;-86
2022/02/13 02:41:12;;;;;;;17.80;12.13;;;2.20;75.70;;;;;;5110113;28;20109;-88
2022/02/13 02:43:39;;;;;;;17.45;12.10;;;2.20;75.70;;;;;;5112265;28;20052;-86
2022/02/13 02:46:07;;;;;;;19.85;12.82;;;2.20;75.70;;;;;;5111679;28;20506;-87
2022/02/13 02:48:34;;;;;;;19.05;12.77;;;2.20;75.80;;;;;;5111663;28;20047;-86
2022/02/13 02:51:02;;;;;;;18.38;12.95;;;2.20;75.80;;;;;;5110233;28;20047;-87
2022/02/13 02:53:30;;;;;;;17.63;12.32;;;2.20;75.80;;;;;;5111246;28;20052;-87
2022/02/13 02:55:57;;;;;;;17.27;12.75;;;2.20;75.80;;;;;;5095645;28;20044;-87
2022/02/13 02:58:24;;;;;;;17.05;12.10;;;2.20;75.80;;;;;;5109355;28;20043;-87
2022/02/13 03:00:51;;;;;;;16.17;12.27;;;2.20;75.80;;;;;;5111473;28;20121;-87
2022/02/13 03:03:19;;;;;;;18.95;12.63;;;2.20;75.80;;;;;;5111432;28;20051;-87
2022/02/13 03:05:51;;;;;;;20.45;12.77;;;2.20;75.80;;;;;;5093562;28;20048;-87
2022/02/13 03:08:19;;;;;;;18.52;12.75;;;2.20;75.80;;;;;;5112541;28;20043;-87
2022/02/13 03:10:47;;;;;;;18.73;12.52;;;2.20;75.80;;;;;;5112268;28;20063;-87
2022/02/13 03:13:16;;;;;;;20.55;12.45;;;2.20;75.80;;;;;;5111319;28;20516;-87
2022/02/13 03:15:43;;;;;;;18.98;12.77;;;2.20;75.80;;;;;;5111137;28;20044;-88
2022/02/13 03:18:10;;;;;;;19.73;12.55;;;2.20;75.90;;;;;;5110445;28;20044;-88
2022/02/13 03:20:38;;;;;;;19.38;13.23;;;2.20;75.90;;;;;;5111167;28;20055;-87
2022/02/13 03:23:05;;;;;;;17.15;12.38;;;2.20;75.90;;;;;;5112926;28;20528;-87
2022/02/13 03:25:32;;;;;;;20.13;13.40;;;2.20;75.90;;;;;;5110762;28;20044;-87
2022/02/13 03:27:59;;;;;;;16.55;12.15;;;2.20;75.90;;;;;;5110904;28;20459;-87
2022/02/13 03:30:26;;;;;;;17.83;12.43;;;2.20;75.90;;;;;;5109406;28;20081;-87
2022/02/13 03:32:53;;;;;;;16.73;12.07;;;2.20;75.90;;;;;;5111022;28;20058;-87
2022/02/13 03:35:20;;;;;;;16.25;12.27;;;2.20;75.90;;;;;;5094184;28;20043;-87
2022/02/13 03:37:47;;;;;;;18.63;12.15;;;2.10;75.90;;;;;;5111566;28;20066;-87
2022/02/13 03:40:14;;;;;;;18.65;12.38;;;2.10;76.00;;;;;;5110985;28;20504;-87
2022/02/13 03:42:42;;;;;;;19.83;12.55;;;2.10;76.00;;;;;;5110925;28;20043;-89
2022/02/13 03:45:09;;;;;;;18.33;12.55;;;2.10;76.00;;;;;;5110777;28;20039;-88
2022/02/13 03:47:37;;;;;;;19.33;12.15;;;2.10;76.00;;;;;;5110780;28;20055;-87
2022/02/13 03:50:04;;;;;;;19.80;13.20;;;2.10;76.00;;;;;;5112647;28;20497;-88
2022/02/13 03:52:31;;;;;;;20.77;13.15;;;2.10;76.00;;;;;;5092468;28;20459;-87
2022/02/13 03:55:01;;;;;;;17.45;12.15;;;2.10;76.00;;;;;;5121799;27;20048;-87
2022/02/13 03:57:28;;;;;;;16.08;11.98;;;2.10;76.10;;;;;;5110408;28;20398;-88
2022/02/13 03:59:56;;;;;;;17.98;12.25;;;2.10;76.10;;;;;;5111078;28;20467;-87
2022/02/13 04:02:23;;;;;;;17.52;12.63;;;2.10;76.10;;;;;;5111630;28;20047;-87
2022/02/13 04:04:51;;;;;;;16.85;12.07;;;2.10;76.10;;;;;;5112004;28;20047;-87
2022/02/13 04:07:18;;;;;;;16.95;11.85;;;2.10;76.10;;;;;;5110584;28;20455;-89
2022/02/13 04:09:45;;;;;;;18.20;12.60;;;2.00;76.10;;;;;;5109090;28;20337;-87
2022/02/13 04:12:14;;;;;;;15.82;12.23;;;2.10;76.10;;;;;;5092940;28;20048;-88
2022/02/13 04:14:41;;;;;;;17.40;12.93;;;2.00;76.10;;;;;;5110398;28;20434;-88
2022/02/13 04:17:08;;;;;;;17.23;12.93;;;2.00;76.10;;;;;;5112601;28;20520;-88
2022/02/13 04:19:35;;;;;;;14.15;11.27;;;2.00;76.10;;;;;;5109950;28;20051;-88
2022/02/13 04:22:02;;;;;;;17.05;12.40;;;2.00;76.10;;;;;;5110575;28;20412;-88
2022/02/13 04:24:29;;;;;;;19.13;12.10;;;2.00;76.20;;;;;;5092302;28;20048;-88
2022/02/13 04:26:56;;;;;;;19.40;12.98;;;2.00;76.20;;;;;;5092403;28;20047;-87
2022/02/13 04:29:23;;;;;;;18.50;12.25;;;2.00;76.20;;;;;;5112290;28;20044;-88
2022/02/13 04:31:50;;;;;;;19.40;12.20;;;2.00;76.20;;;;;;5115804;28;20047;-87
2022/02/13 04:34:21;;;;;;;19.08;13.00;;;2.00;76.20;;;;;;5113861;28;20124;-88
2022/02/13 04:36:48;;;;;;;20.52;12.02;;;2.00;76.20;;;;;;5114456;28;20063;-88
2022/02/13 04:39:15;;;;;;;16.13;11.98;;;2.00;76.20;;;;;;5096081;28;20047;-87
2022/02/13 04:41:41;;;;;;;18.65;12.52;;;2.00;76.20;;;;;;5114279;28;20048;-87
2022/02/13 04:44:08;;;;;;;18.25;12.32;;;2.00;76.20;;;;;;5098031;28;20460;-87
2022/02/13 04:46:35;;;;;;;16.60;12.93;;;2.00;76.30;;;;;;5096107;28;20044;-87
2022/02/13 04:49:02;;;;;;;18.65;12.43;;;2.00;76.30;;;;;;5112109;28;20455;-87
2022/02/13 04:51:29;;;;;;;16.85;11.85;;;2.00;76.20;;;;;;5114047;28;20471;-87
2022/02/13 04:53:56;;;;;;;15.23;11.80;;;2.00;76.30;;;;;;5114059;28;20051;-87
2022/02/13 04:56:23;;;;;;;17.30;12.18;;;2.00;76.30;;;;;;5114820;28;20494;-88
2022/02/13 04:58:50;;;;;;;17.48;11.82;;;2.00;76.30;;;;;;5097323;28;20054;-86
2022/02/13 05:01:17;;;;;;;16.52;12.38;;;2.00;76.30;;;;;;5113886;28;20055;-88
2022/02/13 05:03:44;;;;;;;20.35;13.13;;;2.00;76.30;;;;;;5113275;28;20434;-88
2022/02/13 05:06:11;;;;;;;18.85;12.15;;;2.00;76.30;;;;;;5113830;28;20058;-88
2022/02/13 05:08:38;;;;;;;17.15;11.80;;;2.00;76.30;;;;;;5095778;28;20133;-88
2022/02/13 05:11:05;;;;;;;18.02;12.15;;;2.00;76.30;;;;;;5115886;28;20056;-86
2022/02/13 05:13:32;;;;;;;15.02;11.48;;;2.00;76.30;;;;;;5095574;28;20047;-86
2022/02/13 05:15:59;;;;;;;18.17;12.15;;;2.00;76.40;;;;;;5113473;28;20113;-86
2022/02/13 05:18:26;;;;;;;18.67;11.70;;;2.00;76.40;;;;;;5113216;28;20436;-87
2022/02/13 05:20:53;;;;;;;17.58;11.43;;;2.00;76.40;;;;;;5095602;28;20051;-86
2022/02/13 05:23:20;;;;;;;16.67;12.20;;;2.00;76.40;;;;;;5114905;28;20048;-86
2022/02/13 05:25:46;;;;;;;19.23;11.63;;;1.90;76.40;;;;;;5113107;28;20051;-85
2022/02/13 05:28:13;;;;;;;17.45;11.82;;;1.90;76.50;;;;;;5111804;28;20047;-86
2022/02/13 05:30:40;;;;;;;17.58;12.25;;;1.90;76.50;;;;;;5113155;28;20523;-88
2022/02/13 05:33:07;;;;;;;15.60;12.23;;;1.90;76.50;;;;;;5112871;28;20040;-87
2022/02/13 05:35:34;;;;;;;19.55;12.43;;;1.90;76.50;;;;;;5113140;28;20063;-87
2022/02/13 05:38:01;;;;;;;17.92;11.93;;;1.90;76.50;;;;;;5115201;28;20378;-88
2022/02/13 05:40:28;;;;;;;19.83;12.73;;;1.90;76.60;;;;;;5112628;28;20060;-86
2022/02/13 05:42:55;;;;;;;17.15;11.98;;;1.90;76.60;;;;;;5094427;28;20059;-87
2022/02/13 05:45:23;;;;;;;16.80;11.98;;;1.90;76.60;;;;;;5113029;28;20047;-86
2022/02/13 05:47:50;;;;;;;15.77;11.35;;;1.90;76.70;;;;;;5112882;28;20149;-86
2022/02/13 05:50:17;;;;;;;15.38;11.70;;;1.90;76.70;;;;;;5114139;28;20084;-86
2022/02/13 05:52:44;;;;;;;15.32;11.80;;;1.90;76.70;;;;;;5113709;28;20051;-86
2022/02/13 05:55:11;;;;;;;18.05;11.63;;;1.90;76.70;;;;;;5112694;28;20115;-87
2022/02/13 05:57:42;;;;;;;15.82;11.43;;;1.90;76.70;;;;;;5112687;28;20410;-88
2022/02/13 06:00:13;;;;;;;17.42;12.10;;;1.90;76.80;;;;;;5112793;28;20044;-87
2022/02/13 06:02:41;;;;;;;17.15;11.57;;;1.90;76.80;;;;;;5112394;28;20047;-87
2022/02/13 06:05:09;;;;;;;17.65;11.75;;;1.90;76.80;;;;;;5114689;28;20533;-87
2022/02/13 06:07:40;;;;;;;19.13;12.00;;;1.90;76.90;;;;;;5111041;28;20524;-87
2022/02/13 06:10:10;;;;;;;17.92;11.73;;;1.80;76.90;;;;;;5112428;28;20528;-87
2022/02/13 06:12:37;;;;;;;16.85;11.60;;;1.90;76.90;;;;;;5112504;28;20051;-86
2022/02/13 06:15:07;;;;;;;19.25;11.15;;;1.90;76.90;;;;;;5112246;28;20048;-86
2022/02/13 06:17:34;;;;;;;18.13;12.32;;;1.90;77.00;;;;;;5112099;28;20126;-85
2022/02/13 06:20:02;;;;;;;16.80;12.25;;;1.90;77.00;;;;;;5114679;28;20055;-86
2022/02/13 06:22:29;;;;;;;18.75;11.98;;;1.80;77.00;;;;;;5112177;28;20100;-87
2022/02/13 06:24:56;;;;;;;17.55;12.05;;;1.90;77.00;;;;;;5112309;28;20074;-88
2022/02/13 06:27:23;;;;;;;18.05;12.02;;;1.90;77.00;;;;;;5112150;28;20044;-86
2022/02/13 06:29:50;;;;;;;17.08;11.57;;;1.80;77.00;;;;;;5112156;28;20051;-87
2022/02/13 06:32:17;;;;;;;19.13;12.20;;;1.80;77.00;;;;;;5113425;28;20414;-87
2022/02/13 06:34:46;;;;;;;16.98;11.82;;;1.90;77.10;;;;;;5112792;28;20047;-87
2022/02/13 06:37:13;;;;;;;17.40;12.45;;;1.80;77.10;;;;;;5111944;28;20059;-87
2022/02/13 06:39:40;;;;;;;19.20;11.50;;;1.80;77.10;;;;;;5111762;28;20421;-87
2022/02/13 06:42:07;;;;;;;18.73;11.98;;;1.80;77.10;;;;;;5112049;28;20051;-86
2022/02/13 06:44:33;;;;;;;18.83;12.93;;;1.80;77.10;;;;;;5111879;28;20051;-86
2022/02/13 06:47:00;;;;;;;17.08;12.30;;;1.80;77.10;;;;;;5094662;28;20044;-86
2022/02/13 06:49:27;;;;;;;18.88;12.23;;;1.80;77.10;;;;;;5111681;28;20048;-86
2022/02/13 06:51:54;;;;;;;16.77;12.13;;;1.80;77.10;;;;;;5111552;28;20054;-86
2022/02/13 06:54:21;;;;;;;17.38;11.98;;;1.80;77.20;;;;;;5111517;28;20047;-86
2022/02/13 06:56:48;;;;;;;15.07;11.82;;;1.80;77.20;;;;;;5111778;28;20525;-86
2022/02/13 06:59:15;;;;;;;15.20;11.65;;;1.80;77.10;;;;;;5113369;28;20052;-86
2022/02/13 07:01:42;;;;;;;17.85;11.63;;;1.80;77.20;;;;;;5110628;28;20051;-87
2022/02/13 07:04:10;;;;;;;14.95;11.63;;;1.80;77.20;;;;;;5111362;28;20081;-87
2022/02/13 07:06:36;;;;;;;19.13;12.50;;;1.70;77.20;;;;;;5111533;28;20055;-85
2022/02/13 07:09:04;;;;;;;20.00;11.82;;;1.80;77.20;;;;;;5111425;28;20565;-85
2022/02/13 07:11:31;;;;;;;15.70;11.40;;;1.80;77.20;;;;;;5111404;28;20052;-86
2022/02/13 07:13:58;;;;;;;16.92;12.02;;;1.80;77.20;;;;;;5113194;28;20051;-86
2022/02/13 07:16:26;;;;;;;19.70;12.63;;;1.80;77.20;;;;;;5111070;28;20055;-86
2022/02/13 07:18:52;;;;;;;18.48;11.95;;;1.70;77.20;;;;;;5111061;28;20425;-87
2022/02/13 07:21:19;;;;;;;17.83;11.85;;;1.70;77.30;;;;;;5111142;28;20077;-88
2022/02/13 07:23:46;;;;;;;16.75;11.95;;;1.70;77.20;;;;;;5109758;28;20040;-86
2022/02/13 07:26:13;;;;;;;18.17;12.18;;;1.70;77.30;;;;;;5113181;28;20052;-86
2022/02/13 07:31:27;;;;;;;18.40;12.73;;;1.70;77.30;;;;;;5110916;28;20046;-85
2022/02/13 07:33:54;;;;;;;17.42;12.32;;;1.70;77.40;;;;;;5110899;28;20044;-85
2022/02/13 07:36:23;;;;;;;16.17;11.88;;;1.70;77.40;;;;;;5110777;28;20051;-85
2022/02/13 07:38:50;;;;;;;20.80;13.30;;;1.70;77.40;;;;;;5111129;28;20436;-85
2022/02/13 07:41:18;;;;;;;17.30;12.50;;;1.70;77.40;;;;;;5112257;28;20135;-85
2022/02/13 07:43:45;;;;;;;17.33;12.10;;;1.70;77.50;;;;;;5111244;28;20101;-85
2022/02/13 07:46:12;;;;;;;16.63;12.73;;;1.70;77.50;;;;;;5110777;28;20134;-85
2022/02/13 07:48:39;;;;;;;18.50;12.15;;;1.70;77.50;;;;;;5110542;28;20063;-85
2022/02/13 07:51:09;;;;;;;16.17;12.60;;;1.70;77.60;;;;;;5126563;27;20108;-85
2022/02/13 07:53:40;;;;;;;18.90;12.43;;;1.70;77.60;;;;;;5110746;28;20048;-86
2022/02/13 07:56:09;;;;;;;20.38;13.30;;;1.70;77.60;;;;;;5112760;28;20048;-86
2022/02/13 07:58:37;;;;;;;18.13;12.00;;;1.70;77.70;;;;;;5110506;28;20047;-86
2022/02/13 08:01:05;;;;;;;17.23;11.55;;;1.70;77.70;;;;;;5110555;28;20047;-87
2022/02/13 08:03:35;;;;;;;17.48;12.70;;;1.70;77.70;;;;;;5108819;28;20051;-86
2022/02/13 08:06:04;;;;;;;17.83;12.40;;;1.70;77.70;;;;;;5110297;28;20462;-87
2022/02/13 08:08:31;;;;;;;18.00;12.80;;;1.70;77.80;;;;;;5110512;28;20054;-86
2022/02/13 08:10:58;;;;;;;17.98;12.68;;;1.70;77.80;;;;;;5112627;28;20044;-85
2022/02/13 08:13:25;;;;;;;17.88;12.20;;;1.70;77.80;;;;;;5110217;28;20065;-86
2022/02/13 08:15:52;;;;;;;18.35;11.85;;;1.70;77.80;;;;;;5110488;28;20043;-86
2022/02/13 08:18:18;;;;;;;17.30;11.82;;;1.70;77.90;;;;;;5110383;28;20043;-85
2022/02/13 08:20:46;;;;;;;17.77;13.00;;;1.80;77.90;;;;;;5110611;28;20047;-86
2022/02/13 08:23:14;;;;;;;17.90;12.00;;;1.80;77.90;;;;;;5108788;28;20639;-85
2022/02/13 08:25:42;;;;;;;16.42;11.45;;;1.80;77.90;;;;;;5108163;28;20051;-87
2022/02/13 08:28:11;;;;;;;17.38;12.10;;;1.80;78.00;;;;;;5109921;28;20048;-86
2022/02/13 08:30:40;;;;;;;15.82;12.13;;;1.80;78.00;;;;;;5110304;28;20051;-86
2022/02/13 08:33:08;;;;;;;16.17;11.88;;;1.90;78.00;;;;;;5110305;28;20116;-87
2022/02/13 08:35:35;;;;;;;18.70;12.10;;;1.90;78.00;;;;;;5110420;28;20083;-86
2022/02/13 08:38:06;;;;;;;16.67;12.10;;;1.90;78.10;;;;;;5112547;28;20070;-86
2022/02/13 08:40:34;;;;;;;18.25;12.23;;;1.90;78.10;;;;;;5109547;28;20039;-87
2022/02/13 08:43:02;;;;;;;18.42;12.32;;;1.90;78.10;;;;;;5108947;28;20051;-87
2022/02/13 08:45:30;;;;;;;18.00;12.02;;;1.90;78.10;;;;;;5092287;28;20047;-87
2022/02/13 08:47:57;;;;;;;14.00;11.23;;;1.90;78.10;;;;;;5110732;28;20044;-87
2022/02/13 08:50:25;;;;;;;17.58;12.18;;;2.00;78.10;;;;;;5092960;28;20532;-87
2022/02/13 08:52:53;;;;;;;16.67;11.38;;;2.00;78.10;;;;;;5093871;28;20104;-87
2022/02/13 08:55:20;;;;;;;18.63;11.70;;;2.00;78.10;;;;;;5109592;28;20044;-88
2022/02/13 08:57:49;;;;;;;16.42;11.00;;;2.10;78.10;;;;;;5092343;28;20051;-88
2022/02/13 09:00:17;;;;;;;15.38;11.70;;;2.10;78.10;;;;;;5110135;28;20055;-87
2022/02/13 09:02:44;;;;;;;14.95;10.88;;;2.10;78.10;;;;;;5094223;28;20044;-88
2022/02/13 09:05:11;;;;;;;16.67;10.85;;;2.20;78.00;;;;;;5107851;28;20055;-87
2022/02/13 09:07:39;;;;;;;13.32;10.77;;;2.20;78.00;;;;;;5110132;28;20052;-87
2022/02/13 09:10:11;;;;;;;16.02;11.40;;;2.20;77.90;;;;;;5109750;28;20051;-87
2022/02/13 09:12:38;;;;;;;14.30;10.50;;;2.20;77.90;;;;;;5091972;28;20752;-87
2022/02/13 09:15:05;;;;;;;14.77;10.90;;;2.30;77.90;;;;;;5091756;28;20051;-87
2022/02/13 09:17:33;;;;;;;15.77;10.88;;;2.30;77.80;;;;;;5112452;28;20058;-87
2022/02/13 09:20:00;;;;;;;14.13;10.52;;;2.30;77.80;;;;;;5115731;28;20044;-86
2022/02/13 09:22:27;;;;;;;15.70;10.23;;;2.40;77.70;;;;;;5111970;28;20052;-86
2022/02/13 09:24:54;;;;;;;14.73;10.73;;;2.40;77.70;;;;;;5112952;28;20047;-86
2022/02/13 09:27:22;;;;;;;18.15;10.95;;;2.40;77.70;;;;;;5113498;28;20044;-86
2022/02/13 09:29:51;;;;;;;14.80;10.07;;;2.40;77.70;;;;;;5095461;28;20052;-86
2022/02/13 09:32:18;;;;;;;13.18;9.82;;;2.40;77.70;;;;;;5115161;28;20074;-87
2022/02/13 09:34:45;;;;;;;16.02;10.57;;;2.50;77.70;;;;;;5114088;28;20051;-87
2022/02/13 09:37:11;;;;;;;16.65;10.50;;;2.50;77.70;;;;;;5113029;28;20040;-86
2022/02/13 09:39:44;;;;;;;16.92;10.00;;;2.50;77.70;;;;;;5112772;28;20416;-87
2022/02/13 09:42:11;;;;;;;14.13;9.82;;;2.60;77.70;;;;;;5113204;28;20044;-87
2022/02/13 09:44:38;;;;;;;13.32;9.73;;;2.60;77.70;;;;;;5094983;28;20860;-86
2022/02/13 09:47:06;;;;;;;18.45;10.88;;;2.70;77.70;;;;;;5115106;28;20517;-87
2022/02/13 09:49:33;;;;;;;13.77;10.30;;;2.80;77.80;;;;;;5112734;28;20051;-87
2022/02/13 09:52:01;;;;;;;15.70;10.23;;;2.80;77.80;;;;;;5112950;28;20047;-87
2022/02/13 09:54:28;;;;;;;15.73;10.85;;;2.90;77.80;;;;;;5112391;28;20044;-86
2022/02/13 09:57:59;;;;;;;14.18;9.48;;;3.00;77.80;;;;;;5112735;28;20054;-86
2022/02/13 09:59:56;;;;;;;14.77;10.18;;;3.00;77.80;;;;;;5111899;28;20055;-86
2022/02/13 10:02:34;;;;;;;18.58;10.27;;;3.20;77.80;;;;;;5111260;28;20050;-86
2022/02/13 10:05:03;;;;;;;17.20;10.23;;;3.40;77.70;;;;;;5113358;28;20047;-86
2022/02/13 10:07:32;;;;;;;14.38;10.32;;;3.40;77.70;;;;;;5112139;28;20051;-86
2022/02/13 10:10:02;;;;;;;13.25;9.40;;;3.60;77.60;;;;;;5112520;28;20494;-86
2022/02/13 10:12:30;;;;;;;14.95;9.23;;;3.70;77.60;;;;;;5112344;28;20501;-86
2022/02/13 10:14:57;;;;;;;16.67;9.68;;;3.80;77.50;;;;;;5112592;28;20406;-86
2022/02/13 10:17:25;;;;;;;15.52;9.57;;;3.90;77.40;;;;;;5113483;28;20047;-86
2022/02/13 10:19:56;;;;;;;13.18;8.70;;;4.00;77.20;;;;;;5114033;28;20050;-86
2022/02/13 10:22:37;;;;;;;15.52;9.38;;;4.20;77.10;;;;;;5111980;28;20043;-87
2022/02/13 10:25:14;;;;;;;14.40;9.05;;;4.30;77.00;;;;;;5112152;28;20092;-87
2022/02/13 10:27:49;;;;;;;16.02;9.25;;;4.40;76.80;;;;;;5093629;28;20059;-87
2022/02/13 10:30:43;;;;;;;14.93;9.38;;;4.50;76.60;;;;;;5112357;28;20104;-87
2022/02/13 10:33:28;;;;;;;13.05;9.05;;;4.60;76.40;;;;;;5099579;28;20040;-86
2022/02/13 10:36:10;;;;;;;14.13;8.70;;;4.70;76.20;;;;;;5097686;28;20566;-86
2022/02/13 10:38:40;;;;;;;13.93;8.65;;;4.80;76.00;;;;;;5111501;28;20402;-85
2022/02/13 10:41:13;;;;;;;11.02;7.78;;;4.80;75.80;;;;;;5113573;28;20047;-86
2022/02/13 10:44:02;;;;;;;13.10;8.02;;;4.90;75.40;;;;;;5092439;28;20451;-86
2022/02/13 10:46:32;;;;;;;13.00;8.45;;;4.90;75.10;;;;;;5094092;28;20058;-86
2022/02/13 10:49:00;;;;;;;16.08;8.45;;;4.90;74.80;;;;;;5111540;28;20055;-85
2022/02/13 10:51:29;;;;;;;12.40;7.95;;;4.90;74.60;;;;;;5111386;28;20065;-86
2022/02/13 10:53:57;;;;;;;12.38;8.23;;;4.90;74.40;;;;;;5112121;28;20521;-86
2022/02/13 10:56:25;;;;;;;13.43;8.60;;;5.00;74.20;;;;;;5112509;28;20500;-86
2022/02/13 10:58:59;;;;;;;14.10;8.63;;;5.00;74.10;;;;;;5113766;28;20043;-86
2022/02/13 11:01:28;;;;;;;13.25;8.20;;;5.00;74.10;;;;;;5111414;28;20130;-86
2022/02/13 11:04:03;;;;;;;12.35;8.48;;;5.00;74.00;;;;;;5093495;28;20047;-86
2022/02/13 11:06:35;;;;;;;12.93;8.88;;;5.00;74.00;;;;;;5111146;28;20055;-86
2022/02/13 11:09:16;;;;;;;15.43;8.50;;;5.00;74.00;;;;;;5111519;28;20036;-86
2022/02/13 11:11:45;;;;;;;19.42;8.65;;;5.00;74.10;;;;;;5077507;28;20429;-85
2022/02/13 11:14:43;;;;;;;14.88;8.77;;;5.10;74.10;;;;;;5091165;28;20051;-86
2022/02/13 11:17:30;;;;;;;16.85;8.95;;;5.00;74.20;;;;;;5113075;28;20055;-85
2022/02/13 11:19:57;;;;;;;12.75;8.95;;;5.00;74.40;;;;;;5111143;28;20048;-85
2022/02/13 11:22:35;;;;;;;16.63;9.02;;;5.10;74.50;;;;;;5111089;28;20427;-86
2022/02/13 11:25:03;;;;;;;13.70;8.52;;;5.10;74.60;;;;;;5091508;28;20050;-86
2022/02/13 11:27:52;;;;;;;15.77;8.80;;;5.10;74.80;;;;;;5110937;28;20058;-86
2022/02/13 11:30:45;;;;;;;17.10;8.57;;;5.20;75.00;;;;;;5110915;28;20058;-87
2022/02/13 11:33:31;;;;;;;15.27;9.32;;;5.20;75.10;;;;;;5111002;28;20047;-85
2022/02/13 11:36:01;;;;;;;14.95;9.07;;;5.20;75.20;;;;;;5096419;28;20035;-86
2022/02/13 11:38:37;;;;;;;12.77;9.35;;;5.30;75.40;;;;;;5092952;28;20058;-86
2022/02/13 11:41:05;;;;;;;16.73;8.95;;;5.40;75.50;;;;;;5093827;28;20069;-87
2022/02/13 11:43:45;;;;;;;15.63;9.48;;;5.40;75.60;;;;;;5092658;28;20509;-87
2022/02/13 11:46:13;;;;;;;14.95;8.60;;;5.50;75.70;;;;;;5110764;28;20485;-87
2022/02/13 11:48:43;;;;;;;13.90;9.15;;;5.50;75.80;;;;;;5110536;28;20120;-87
2022/02/13 11:51:13;;;;;;;15.20;9.13;;;5.50;75.90;;;;;;5110463;28;20093;-86
2022/02/13 11:53:44;;;;;;;15.82;10.05;;;5.60;76.00;;;;;;5110659;28;20040;-86
2022/02/13 11:56:21;;;;;;;19.25;9.10;;;5.60;76.00;;;;;;5112681;28;20051;-86
2022/02/13 11:58:48;;;;;;;14.63;9.82;;;5.70;76.10;;;;;;5093757;28;20051;-86
2022/02/13 12:01:37;;;;;;;14.65;9.98;;;5.80;76.20;;;;;;5110623;28;20394;-85
2022/02/13 12:04:08;;;;;;;13.18;8.73;;;5.90;76.30;;;;;;5110119;28;20043;-85
2022/02/13 12:06:36;;;;;;;14.15;9.45;;;5.90;76.40;;;;;;5110461;28;20048;-87
2022/02/13 12:09:08;;;;;;;13.57;9.05;;;5.90;76.50;;;;;;5110633;28;20047;-87
2022/02/13 12:11:38;;;;;;;16.88;8.77;;;6.00;76.60;;;;;;5110520;28;24252;-87
2022/02/13 12:14:15;;;;;;;17.05;9.35;;;6.10;76.70;;;;;;5094741;28;20047;-87
2022/02/13 12:16:57;;;;;;;14.65;9.25;;;6.10;76.80;;;;;;5092974;28;20509;-86
2022/02/13 12:19:34;;;;;;;13.43;9.20;;;6.20;76.90;;;;;;5109997;28;20055;-86
2022/02/13 12:22:08;;;;;;;19.10;9.98;;;6.30;76.90;;;;;;5092362;28;20055;-86
2022/02/13 12:24:35;;;;;;;;;;;6.40;76.90;;;;;;5110815;28;20044;-86
2022/02/13 12:27:03;;;;;;;18.77;9.75;;;6.40;76.90;;;;;;5110516;28;19926;-85
2022/02/13 12:29:30;;;;;;;16.67;9.48;;;6.50;76.90;;;;;;5110497;28;20043;-86
2022/02/13 12:32:08;;;;;;;14.32;8.98;;;6.60;76.90;;;;;;5110419;28;20061;-85
2022/02/13 12:34:49;;;;;;;18.40;10.48;;;6.70;76.90;;;;;;5109843;28;20048;-85
2022/02/13 12:37:16;;;;;;;17.75;9.77;;;6.70;76.90;;;;;;5108748;28;20059;-87
2022/02/13 12:39:51;;;;;;;14.15;9.15;;;6.90;76.90;;;;;;5092174;28;20044;-88
2022/02/13 12:42:48;;;;;;;16.58;9.93;;;6.90;76.90;;;;;;5110205;28;20051;-86
2022/02/13 12:45:26;;;;;;;17.00;9.20;;;7.00;76.90;;;;;;5099236;28;20047;-86
2022/02/13 12:47:55;;;;;;;14.10;9.82;;;7.10;76.80;;;;;;5109926;28;20484;-86
2022/02/13 12:50:24;;;;;;;21.65;10.00;;;7.10;76.70;;;;;;5112175;28;20055;-86